Zawiyat Shammas, Egypt
Current Conditions -  °F | °C
As of 3:00 PM on Thursday 23 Oct 2014 (Local Time) from HEMM Reporting Station
Clear Clear  
Wind Chill: 86°   Ceiling: Unl
Heat Index: 86°   Visibility: 4mi
Dew Point: 52°   Wind: 21mph
Humidity: 31%   Direction: 250°WSW
Pressure: 29.91"   Gusts: NA
Location:  31.52°N, 26.4°E
Report Text: HEMM 231300Z 25018KT 6000 NSC 30/11 Q1013 NOSIG
Loading
Personal Weather Stations






























Interactive Weather Map
Tropical Storm Tracking
New forecast layout! Learn more

10-Day Weather Forecast

Advertisements
Track Severe Weather on mobile